EDT,Max TemperatureF,Mean TemperatureF,Min TemperatureF,Max Dew PointF,MeanDew PointF,Min DewpointF,Max Humidity, Mean Humidity, Min Humidity, Max Sea Level PressureIn, Mean Sea Level PressureIn, Min Sea Level PressureIn, Max VisibilityMiles, Mean VisibilityMiles, Min VisibilityMiles, Max Wind SpeedMPH, Mean Wind SpeedMPH, Max Gust SpeedMPH,PrecipitationIn, CloudCover, Events, WindDirDegrees
2013-3-1,37,34,30,35,32,25,100,92,77,30.07,30.00,29.94,10,9,4,12,5,,0.00,8,Rain-Snow,11
2013-3-2,30,28,27,25,23,21,90,81,76,30.10,30.07,30.04,10,9,3,12,6,,0.00,8,Snow,355
2013-3-3,32,28,25,26,24,21,98,81,62,30.10,30.08,30.05,10,10,5,13,4,17,0.00,8,Rain-Snow,315
2013-3-4,41,28,15,32,23,15,100,79,45,30.19,30.11,30.03,10,9,4,10,1,,0.00,3,Snow,109
2013-3-5,37,34,32,36,34,32,100,95,82,30.04,29.80,29.61,10,6,1,12,7,16,0.00,8,Snow,64
2013-3-6,33,31,29,32,31,29,100,96,90,30.26,30.02,29.64,10,7,1,15,7,21,0.00,8,Snow,330
2013-3-7,37,32,28,33,32,28,100,92,79,30.40,30.34,30.25,10,9,5,9,3,,0.00,8,,298
2013-3-8,41,31,21,31,26,22,100,82,51,30.50,30.44,30.40,10,9,2,8,2,,0.00,0,,56
2013-3-9,55,40,26,43,34,26,100,77,51,30.41,30.24,30.05,10,9,5,12,3,,0.00,2,,116
2013-3-10,68,58,47,47,39,36,80,49,31,30.05,29.96,29.85,10,10,10,22,9,36,0.00,2,Rain,188
2013-3-11,57,47,37,53,47,33,100,91,69,29.87,29.77,29.62,10,9,3,30,10,40,0.00,8,Rain,205
2013-3-12,45,39,33,35,32,30,100,82,60,30.06,29.97,29.87,10,10,2,18,11,28,0.00,8,Snow,257
2013-3-13,33,30,27,34,27,23,100,86,67,30.32,30.17,30.01,10,9,2,18,10,31,0.00,6,Snow,276
2013-3-14,42,30,19,32,23,19,100,74,39,30.37,30.30,30.17,10,10,10,14,5,17,0.00,1,,248
2013-3-15,52,40,27,44,36,27,100,84,64,30.19,30.00,29.80,10,9,3,9,5,,0.00,2,,234
2013-3-16,57,46,35,53,42,33,100,91,73,30.06,29.80,29.63,10,8,0,17,6,25,0.00,5,Fog,336
2013-3-17,37,35,33,33,31,28,94,83,75,30.18,30.11,30.04,10,10,10,16,9,21,0.00,8,,56
2013-3-18,50,41,32,50,40,32,100,97,81,30.03,29.77,29.62,10,7,1,21,10,29,0.00,8,Snow,166
2013-3-19,41,34,27,36,24,18,96,64,39,30.11,29.99,29.83,10,10,10,30,14,45,0.00,2,,259
2013-3-20,35,30,25,27,20,14,96,65,48,30.11,30.04,29.98,10,10,10,20,9,29,0.00,3,,276
2013-3-21,32,26,19,22,18,14,92,70,53,30.05,30.01,29.96,10,9,2,13,6,20,0.00,7,Snow,296
2013-3-22,42,30,17,27,21,17,98,71,41,30.09,30.05,30.00,10,10,10,13,3,16,0.00,0,,248
2013-3-23,50,38,25,31,27,23,95,68,39,30.09,30.03,29.92,10,10,10,12,2,,0.00,3,,27
2013-3-24,37,34,32,35,31,26,100,88,69,29.92,29.68,29.44,10,8,0,25,11,32,0.00,6,Rain-Snow,53
2013-3-25,35,34,32,34,33,32,100,97,92,29.95,29.64,29.44,10,4,1,14,7,22,0.00,8,Snow,319
2013-3-26,39,36,32,34,31,28,98,87,70,30.24,30.11,29.95,10,9,2,14,8,20,0.00,8,Rain-Snow,307
2013-3-27,43,36,29,31,29,24,95,76,51,30.32,30.28,30.24,10,10,10,14,8,23,0.00,4,,290
2013-3-28,48,38,27,33,28,24,98,68,47,30.37,30.33,30.30,10,10,10,12,5,17,0.00,1,,297
2013-3-29,55,41,27,37,32,28,100,74,43,30.34,30.29,30.22,10,9,4,8,1,,0.00,4,,320
2013-3-30,59,43,27,41,33,28,100,69,37,30.27,30.15,29.96,10,9,3,9,2,16,0.00,0,,197
2013-3-31,57,49,41,51,45,38,100,86,57,29.95,29.84,29.79,10,8,2,15,4,22,0.00,6,,243